This is the latest recevied weather packets stored in our database for station/object KG4AGD. If no packets are shown the sender has not sent any weather packets the latest 10 day(s).
| Time | Temp. | Humidity | Pressure | Rain* | Wind** | Luminosity | Snow |
|---|---|---|---|---|---|---|---|
| 1777868137 | 7.22° C | 98% | 1018.9 hPa | 0 mm | - | - | - |
| 1777867835 | 7.22° C | 98% | 1018.9 hPa | 0 mm | - | - | - |
| 1777867533 | 7.22° C | 98% | 1018.9 hPa | 0 mm | - | - | - |
| 1777867230 | 7.22° C | 98% | 1018.9 hPa | 0 mm | - | - | - |
| 1777866928 | 7.22° C | 96% | 1018.9 hPa | 0.25 mm | - | - | - |
| 1777866626 | 7.22° C | 95% | 1018.9 hPa | 0.25 mm | - | - | - |
| 1777865720 | 6.67° C | 94% | 1018.9 hPa | 0.25 mm | - | - | - |
| 1777865418 | 6.67° C | 93% | 1018.9 hPa | 0.25 mm | - | - | - |
| 1777865115 | 6.67° C | 93% | 1018.9 hPa | 0.25 mm | - | - | - |
| 1777864813 | 7.22° C | 92% | 1018.9 hPa | 0.25 mm | - | - | - |
| 1777864511 | 7.22° C | 93% | 1018.9 hPa | 0.25 mm | - | - | - |
| 1777863300 | 7.78° C | 91% | 1018.9 hPa | 0.25 mm | - | - | - |
| 1777847282 | 20° C | 33% | 1017.2 hPa | 0.25 mm | - | - | - |
| 1777844259 | 20.56° C | 34% | 1017.2 hPa | 0.25 mm | - | - | - |
| 1777843956 | 20.56° C | 34% | 1017.2 hPa | 0.25 mm | - | - | - |
| 1777843654 | 20.56° C | 34% | 1017.2 hPa | 0.25 mm | - | - | - |
| 1777843352 | 20° C | 32% | 1017.2 hPa | 0.25 mm | - | - | - |
| 1777843049 | 20.56° C | 32% | 1017.2 hPa | 0.25 mm | - | - | - |
| 1777842747 | 20.56° C | 34% | 1017.2 hPa | 0.25 mm | - | - | - |
| 1777842445 | 20.56° C | 32% | 1017.2 hPa | 0.25 mm | - | - | - |
| 1777842143 | 20.56° C | 36% | 1017.2 hPa | 0.25 mm | - | - | - |
| 1777841841 | 20° C | 32% | 1017.2 hPa | 0.25 mm | - | - | - |
| 1777841539 | 20° C | 33% | 1017.2 hPa | 0.25 mm | - | - | - |
| 1777841236 | 20.56° C | 34% | 1017.2 hPa | 0.25 mm | - | - | - |
| 1777840632 | 20.56° C | 34% | 1017.6 hPa | 0.25 mm | - | - | - |
* Rain since midnight (hover to see other rain measurements)
** Current wind speed in m/s (hover to see current wind gust speed)